Time;durP1;ratioP1;P1;durP2;ratioP2;P2;SDS_P1;SDS_P2;PMS_P1;PMS_P2;Temp;Humidity;BMP_temperature;BMP_pressure;BME280_temperature;BME280_humidity;BME280_pressure;Samples;Min_cycle;Max_cycle;Signal;HPM_P1;HPM_P2
2022/12/30 00:00:16;;;;;;;19.40;13.02;;;;;;;-0.22;85.63;97288.88;5051312;28;20045;-63
2022/12/30 00:02:43;;;;;;;22.23;13.90;;;;;;;-0.30;86.17;97281.03;5051319;28;20383;-64
2022/12/30 00:05:11;;;;;;;18.42;11.32;;;;;;;-0.37;85.63;97284.34;5051469;28;20049;-64
2022/12/30 00:07:38;;;;;;;18.38;12.02;;;;;;;-0.39;85.95;97290.31;5051265;28;20045;-65
2022/12/30 00:10:06;;;;;;;18.55;12.07;;;;;;;-0.36;85.89;97284.34;5051324;28;20105;-61
2022/12/30 00:34:56;;;;;;;28.63;14.32;;;;;;;-0.33;85.42;97286.97;5051023;28;20090;-64
2022/12/30 00:37:23;;;;;;;19.25;13.63;;;;;;;-0.32;85.20;97283.59;5050914;28;20049;-64
2022/12/30 00:39:51;;;;;;;22.60;12.52;;;;;;;-0.24;85.25;97291.41;5050557;28;20176;-61
2022/12/30 00:45:04;;;;;;;18.27;12.32;;;;;;;-0.18;84.34;97290.69;5050865;28;20109;-65
2022/12/30 00:47:31;;;;;;;22.42;12.60;;;;;;;-0.19;84.08;97301.78;5050717;28;20048;-64
2022/12/30 00:58:14;;;;;;;19.67;12.93;;;;;;;-0.46;84.82;97309.03;5050768;28;20100;-61
2022/12/30 01:00:42;;;;;;;16.58;10.60;;;;;;;-0.38;83.93;97306.63;5050555;28;20053;-63
2022/12/30 01:03:10;;;;;;;20.02;12.82;;;;;;;-0.35;83.25;97293.81;5050399;28;20062;-64
2022/12/30 01:05:38;;;;;;;19.35;12.82;;;;;;;-0.38;83.81;97288.63;5050455;28;20121;-63
2022/12/30 01:08:06;;;;;;;19.95;12.90;;;;;;;-0.43;84.23;97295.38;5050579;28;20076;-62
2022/12/30 01:10:33;;;;;;;23.10;13.80;;;;;;;-0.52;85.32;97296.06;5050462;28;20482;-62
2022/12/30 01:13:01;;;;;;;20.42;13.00;;;;;;;-0.60;86.02;97287.38;5050347;28;20131;-64
2022/12/30 01:15:28;;;;;;;22.45;13.45;;;;;;;-0.57;85.93;97283.13;5050404;28;20057;-64
2022/12/30 01:17:57;;;;;;;24.45;13.85;;;;;;;-0.55;85.68;97284.03;5050245;28;20052;-65
2022/12/30 01:20:24;;;;;;;27.15;15.68;;;;;;;-0.51;85.57;97278.09;5050307;28;20079;-61
2022/12/30 01:22:51;;;;;;;26.90;15.00;;;;;;;-0.42;85.30;97286.84;5050119;28;20074;-63
2022/12/30 01:25:18;;;;;;;33.97;17.85;;;;;;;-0.36;85.20;97284.34;5050181;28;20049;-63
2022/12/30 01:27:50;;;;;;;47.08;21.67;;;;;;;-0.34;85.23;97284.38;5050223;28;20045;-63
2022/12/30 01:30:17;;;;;;;48.03;20.30;;;;;;;-0.31;85.71;97280.16;5050130;28;20132;-63
2022/12/30 01:32:44;;;;;;;31.08;16.35;;;;;;;-0.37;85.69;97274.91;5050083;28;20049;-62
2022/12/30 01:35:14;;;;;;;23.88;15.18;;;;;;;-0.47;85.62;97268.75;5049929;28;20106;-63
2022/12/30 01:37:41;;;;;;;27.33;14.07;;;;;;;-0.46;85.88;97273.06;5049902;28;20084;-64
2022/12/30 01:40:10;;;;;;;22.60;13.20;;;;;;;-0.47;85.85;97268.75;5049798;28;20136;-61
2022/12/30 01:42:39;;;;;;;37.72;20.23;;;;;;;-0.44;85.67;97262.78;5049913;28;20053;-63
2022/12/30 01:45:15;;;;;;;30.08;13.75;;;;;;;-0.39;85.36;97253.47;5050013;28;20049;-61
2022/12/30 01:47:47;;;;;;;24.02;13.25;;;;;;;-0.32;85.19;97257.88;5049866;28;20048;-64
2022/12/30 01:50:31;;;;;;;21.23;15.13;;;;;;;-0.47;85.68;97245.63;5049859;28;20491;-66
2022/12/30 01:53:03;;;;;;;26.52;14.73;;;;;;;-0.42;85.59;97256.00;5049870;28;20049;-61
2022/12/30 01:55:36;;;;;;;24.67;14.63;;;;;;;-0.45;85.55;97253.34;5049895;28;20045;-65
2022/12/30 01:58:15;;;;;;;21.95;13.48;;;;;;;-0.48;85.40;97256.72;5049624;28;20136;-63
2022/12/30 02:00:42;;;;;;;23.63;13.63;;;;;;;-0.52;85.46;97255.81;5049952;28;20098;-63
2022/12/30 02:03:09;;;;;;;26.00;14.38;;;;;;;-0.48;85.57;97254.16;5049752;28;20124;-64
2022/12/30 02:05:43;;;;;;;22.17;13.68;;;;;;;-0.48;86.07;97249.00;5049677;28;20105;-65
2022/12/30 02:08:15;;;;;;;22.20;13.38;;;;;;;-0.55;86.61;97249.75;5049732;28;20068;-64
2022/12/30 02:10:45;;;;;;;26.52;15.45;;;;;;;-0.61;87.20;97247.94;5049638;28;20053;-63
2022/12/30 02:13:19;;;;;;;29.15;16.63;;;;;;;-0.59;87.52;97245.41;5049613;28;20053;-60
2022/12/30 02:16:07;;;;;;;26.05;15.35;;;;;;;-0.65;87.25;97243.59;5031713;28;20053;-63
2022/12/30 02:18:50;;;;;;;27.33;15.57;;;;;;;-0.64;87.05;97237.59;5049576;28;20049;-61
2022/12/30 02:21:40;;;;;;;27.05;18.35;;;;;;;-0.73;87.13;97232.31;5049495;28;20052;-62
2022/12/30 02:24:25;;;;;;;;;;;;;;;-0.76;86.88;97238.25;5049777;28;20102;-62
2022/12/30 02:27:27;;;;;;;21.73;13.35;;;;;;;-0.81;87.50;97240.72;5052571;28;19927;-60
2022/12/30 02:30:08;;;;;;;23.73;12.23;;;;;;;-0.72;86.86;97231.47;5059603;28;20432;-62
2022/12/30 02:32:53;;;;;;;20.40;13.65;;;;;;;-0.68;87.29;97234.13;5049360;28;20103;-60
2022/12/30 02:35:25;;;;;;;21.88;12.98;;;;;;;-0.64;87.05;97238.47;5049351;28;20499;-61
2022/12/30 02:38:02;;;;;;;27.13;15.30;;;;;;;-0.58;87.25;97244.53;5049207;28;20044;-63
2022/12/30 02:44:36;;;;;;;23.83;13.75;;;;;;;-0.58;87.26;97237.72;5048468;28;20448;-63
2022/12/30 02:46:13;;;;;;;28.10;14.05;;;;;;;-0.47;87.17;97247.31;5049407;28;20055;-62
2022/12/30 02:48:44;;;;;;;;;;;;;;;-0.42;87.00;97245.69;5051466;28;20049;-62
2022/12/30 02:53:56;;;;;;;18.48;10.90;;;;;;;-0.57;85.49;97236.88;5052675;28;20075;-62
2022/12/30 02:56:23;;;;;;;17.70;11.13;;;;;;;-0.65;85.50;97239.31;5052441;28;20056;-60
2022/12/30 03:03:57;;;;;;;15.52;11.40;;;;;;;-0.61;85.61;97240.22;5052478;28;20041;-63
2022/12/30 03:04:48;;;;;;;17.58;11.77;;;;;;;-0.55;86.38;97231.75;5052393;28;20056;-65
2022/12/30 03:07:26;;;;;;;20.20;12.57;;;;;;;-0.55;85.63;97239.47;5052415;28;20451;-62
2022/12/30 03:12:58;;;;;;;31.63;14.38;;;;;;;-0.64;85.82;97246.19;5052358;28;20059;-62
2022/12/30 03:15:32;;;;;;;24.48;14.45;;;;;;;-0.62;85.66;97247.91;5052126;28;20499;-61
2022/12/30 03:18:00;;;;;;;16.45;10.70;;;;;;;-0.62;85.59;97251.34;5052090;28;20056;-65
2022/12/30 03:20:31;;;;;;;16.65;11.35;;;;;;;-0.61;84.92;97249.66;5052090;28;20053;-60
2022/12/30 03:28:33;;;;;;;22.67;13.50;;;;;;;-0.66;87.15;97237.56;5052075;28;20551;-61
2022/12/30 03:31:02;;;;;;;18.48;11.68;;;;;;;-0.63;86.72;97247.06;5051880;28;20057;-60
2022/12/30 03:33:31;;;;;;;16.63;10.95;;;;;;;-0.68;86.67;97246.09;5051894;28;20053;-62
2022/12/30 03:36:07;;;;;;;17.58;11.05;;;;;;;-0.77;85.70;97251.94;5051871;28;20045;-63
2022/12/30 03:38:38;;;;;;;15.63;10.25;;;;;;;-0.80;85.67;97247.63;5051829;28;20045;-62
2022/12/30 03:41:09;;;;;;;21.40;12.52;;;;;;;-0.81;85.50;97252.72;5051629;28;20456;-60
2022/12/30 03:43:36;;;;;;;;;;;;;;;-0.93;85.78;97256.78;5052153;28;20119;-62
2022/12/30 03:46:03;;;;;;;20.23;11.00;;;;;;;-0.99;85.89;97259.25;5051665;28;19964;-61
2022/12/30 03:48:30;;;;;;;20.92;10.75;;;;;;;-1.02;86.55;97257.47;5051602;28;20045;-61
2022/12/30 03:50:59;;;;;;;21.55;11.63;;;;;;;-0.95;86.32;97271.31;5051579;28;20051;-61
2022/12/30 03:53:26;;;;;;;18.80;11.15;;;;;;;-0.91;86.76;97264.53;5051601;28;20047;-63
2022/12/30 03:55:53;;;;;;;19.35;12.23;;;;;;;-0.89;87.13;97262.84;5051574;28;20451;-63
2022/12/30 03:58:20;;;;;;;18.63;12.40;;;;;;;-0.90;87.89;97261.13;5051604;28;20137;-60
2022/12/30 04:00:47;;;;;;;18.35;11.15;;;;;;;-0.83;87.50;97262.09;5051428;28;20478;-61
2022/12/30 04:03:14;;;;;;;17.90;11.73;;;;;;;-0.77;86.96;97264.78;5051386;28;20049;-61
2022/12/30 04:05:42;;;;;;;18.73;11.88;;;;;;;-0.76;86.35;97271.66;5051292;28;20129;-62
2022/12/30 04:08:11;;;;;;;23.13;12.48;;;;;;;-0.72;86.10;97270.03;5051338;28;20049;-63
2022/12/30 04:10:39;;;;;;;23.92;12.15;;;;;;;-0.68;86.48;97264.09;5051313;28;20080;-62
2022/12/30 04:13:06;;;;;;;24.80;12.18;;;;;;;-0.71;86.35;97271.75;5051202;28;20045;-62
2022/12/30 04:15:33;;;;;;;20.67;13.02;;;;;;;-0.71;86.47;97272.63;5051164;28;20083;-61
2022/12/30 04:18:01;;;;;;;23.77;12.95;;;;;;;-0.67;85.76;97268.38;5051218;28;20128;-60
2022/12/30 04:20:28;;;;;;;17.75;10.68;;;;;;;-0.70;85.68;97273.47;5051109;28;20418;-63
2022/12/30 04:22:58;;;;;;;17.02;10.57;;;;;;;-0.67;85.21;97270.94;5051167;28;20098;-63
2022/12/30 04:25:27;;;;;;;15.70;11.02;;;;;;;-0.81;84.69;97270.72;5051109;28;20056;-60
2022/12/30 04:27:54;;;;;;;15.55;9.73;;;;;;;-0.86;85.16;97264.59;5051083;28;20138;-63
2022/12/30 04:30:21;;;;;;;15.55;10.32;;;;;;;-0.87;86.11;97273.16;5051179;28;20049;-63
2022/12/30 04:32:48;;;;;;;30.73;12.20;;;;;;;-0.90;86.89;97276.53;5051167;28;20049;-62
2022/12/30 04:35:16;;;;;;;15.57;10.40;;;;;;;-0.84;86.90;97270.66;5050933;28;20053;-61
2022/12/30 04:37:43;;;;;;;23.45;13.60;;;;;;;-0.86;86.92;97269.75;5050942;28;20456;-61
2022/12/30 04:40:11;;;;;;;20.95;11.40;;;;;;;-0.90;86.76;97272.25;5050647;28;20041;-60
2022/12/30 04:42:40;;;;;;;17.00;11.13;;;;;;;-0.90;86.75;97272.25;5050759;28;20055;-61
2022/12/30 04:45:08;;;;;;;16.75;10.68;;;;;;;-0.95;86.85;97263.59;5050754;28;20094;-62
2022/12/30 04:47:35;;;;;;;16.80;11.15;;;;;;;-0.93;86.98;97267.06;5050689;28;20052;-62
2022/12/30 04:50:03;;;;;;;22.35;13.13;;;;;;;-0.93;87.25;97276.50;5050757;28;20136;-62
2022/12/30 04:52:30;;;;;;;18.83;10.93;;;;;;;-0.90;86.98;97272.25;5050707;28;20049;-60
2022/12/30 04:54:57;;;;;;;22.92;14.00;;;;;;;-0.94;86.99;97272.16;5050696;28;20055;-62
2022/12/30 04:57:24;;;;;;;22.52;12.45;;;;;;;-0.88;88.00;97280.00;5050609;28;20041;-63
2022/12/30 04:59:53;;;;;;;23.65;14.82;;;;;;;-0.82;88.92;97279.25;5050614;28;20128;-61
2022/12/30 05:02:20;;;;;;;20.02;13.05;;;;;;;-0.79;88.31;97274.16;5050532;28;20124;-61
2022/12/30 05:04:48;;;;;;;14.25;9.60;;;;;;;-0.72;88.09;97276.00;5050334;28;20521;-62
2022/12/30 05:07:15;;;;;;;18.80;10.43;;;;;;;-0.70;87.35;97286.31;5050431;28;20136;-61
2022/12/30 05:09:42;;;;;;;19.05;14.63;;;;;;;-0.72;86.95;97285.44;5050433;28;20494;-63
2022/12/30 05:12:09;;;;;;;22.35;13.55;;;;;;;-0.79;87.19;97282.75;5049910;28;20048;-63
2022/12/30 05:14:37;;;;;;;21.42;13.52;;;;;;;-0.74;87.18;97287.09;5050367;28;20088;-64
2022/12/30 05:17:05;;;;;;;15.10;10.77;;;;;;;-0.69;86.92;97288.06;5050325;28;20513;-63
2022/12/30 05:19:33;;;;;;;21.35;13.40;;;;;;;-0.74;87.17;97281.97;5050414;28;20049;-61
2022/12/30 05:22:00;;;;;;;19.38;12.02;;;;;;;-0.75;87.39;97287.94;5050324;28;20059;-64
2022/12/30 05:27:12;;;;;;;17.48;11.40;;;;;;;-0.79;88.37;97292.16;5050322;28;20138;-61
2022/12/30 05:29:39;;;;;;;17.35;11.10;;;;;;;-0.78;88.77;97288.75;5050122;28;20119;-61
2022/12/30 05:32:08;;;;;;;18.02;12.55;;;;;;;-0.73;88.35;97296.56;5050253;28;20471;-61
2022/12/30 05:34:36;;;;;;;20.60;12.20;;;;;;;-0.75;88.19;97293.09;5050092;28;20509;-63
2022/12/30 05:37:03;;;;;;;22.15;13.40;;;;;;;-0.68;88.30;97290.66;5050110;28;20084;-61
2022/12/30 05:39:30;;;;;;;19.20;13.20;;;;;;;-0.68;88.32;97300.94;5049998;28;20045;-63
2022/12/30 05:41:58;;;;;;;17.20;12.02;;;;;;;-0.68;88.32;97302.66;5049844;28;20058;-62
2022/12/30 05:44:26;;;;;;;19.60;11.75;;;;;;;-0.67;88.21;97294.97;5049824;28;20056;-62
2022/12/30 05:46:54;;;;;;;16.88;11.60;;;;;;;-0.66;88.48;97299.25;5049936;28;20450;-63
2022/12/30 05:49:22;;;;;;;22.02;13.60;;;;;;;-0.62;88.38;97300.19;5049977;28;20045;-63
2022/12/30 05:51:50;;;;;;;17.90;11.38;;;;;;;-0.69;88.98;97300.91;5049932;28;20045;-61
2022/12/30 05:54:17;;;;;;;17.60;11.68;;;;;;;-0.66;89.06;97300.97;5049885;28;20131;-63
2022/12/30 05:56:44;;;;;;;17.02;10.15;;;;;;;-0.64;88.87;97301.84;5049799;28;20045;-62
2022/12/30 05:59:12;;;;;;;21.55;13.15;;;;;;;-0.60;88.47;97297.66;5049809;28;20128;-59
2022/12/30 06:01:40;;;;;;;19.08;11.65;;;;;;;-0.53;87.68;97302.94;5049867;28;20045;-64
2022/12/30 06:04:07;;;;;;;16.65;10.77;;;;;;;-0.49;87.20;97300.44;5049810;28;20053;-64
2022/12/30 06:06:36;;;;;;;17.70;10.85;;;;;;;-0.49;87.65;97305.56;5049698;28;20052;-64
2022/12/30 06:09:04;;;;;;;19.90;12.52;;;;;;;-0.49;89.27;97314.13;5049767;28;20448;-62
2022/12/30 06:11:32;;;;;;;22.77;11.85;;;;;;;-0.51;89.33;97311.53;5049658;28;20093;-63
2022/12/30 06:13:59;;;;;;;28.77;12.27;;;;;;;-0.45;89.00;97315.06;5049619;28;20091;-61
2022/12/30 06:16:27;;;;;;;15.30;9.93;;;;;;;-0.36;88.73;97304.06;5049523;28;20053;-62
2022/12/30 06:18:54;;;;;;;17.85;10.07;;;;;;;-0.28;88.33;97317.91;5049539;28;20049;-64
2022/12/30 06:21:22;;;;;;;21.63;10.20;;;;;;;-0.20;88.24;97318.94;5049363;28;20060;-63
2022/12/30 06:23:51;;;;;;;17.88;10.43;;;;;;;-0.09;88.58;97325.97;5051688;28;20049;-63
2022/12/30 06:26:19;;;;;;;17.52;10.45;;;;;;;0.07;88.90;97322.81;5052873;28;20045;-61
2022/12/30 06:28:47;;;;;;;15.48;11.25;;;;;;;0.77;91.39;97322.09;5052987;28;20049;-64
2022/12/30 06:31:15;;;;;;;12.45;9.48;;;;;;;2.21;89.75;97325.34;5052910;28;20052;-64
2022/12/30 06:33:43;;;;;;;10.88;7.05;;;;;;;3.90;80.76;97333.88;5052872;28;20057;-64
2022/12/30 06:36:11;;;;;;;7.38;5.65;;;;;;;5.41;71.20;97325.84;5052775;28;20128;-62
2022/12/30 06:38:39;;;;;;;6.10;5.10;;;;;;;6.68;63.85;97322.34;5052855;28;20128;-63
2022/12/30 06:41:08;;;;;;;7.57;5.25;;;;;;;7.52;60.07;97333.56;5052585;28;20053;-63
2022/12/30 06:43:35;;;;;;;6.38;4.75;;;;;;;8.19;57.91;97330.03;5052902;28;20068;-65
2022/12/30 06:46:03;;;;;;;6.95;5.50;;;;;;;9.14;55.66;97327.50;5052614;28;20045;-62
2022/12/30 06:48:31;;;;;;;7.72;6.15;;;;;;;10.19;53.62;97327.00;5052620;28;20461;-64
2022/12/30 06:51:02;;;;;;;7.57;5.10;;;;;;;11.17;49.54;97330.69;5052565;28;20078;-62
2022/12/30 06:53:29;;;;;;;8.02;5.25;;;;;;;11.99;47.99;97327.41;5052557;28;20053;-63
2022/12/30 06:55:57;;;;;;;8.20;5.40;;;;;;;12.97;43.97;97324.25;5052575;28;20049;-63
2022/12/30 06:58:26;;;;;;;5.70;4.80;;;;;;;13.96;42.51;97326.78;5052605;28;20071;-65
2022/12/30 07:00:53;;;;;;;7.30;5.15;;;;;;;14.88;40.32;97330.16;5052470;28;20045;-65
2022/12/30 07:03:26;;;;;;;5.95;5.15;;;;;;;15.60;38.42;97327.00;5052464;28;20175;-60
2022/12/30 07:05:54;;;;;;;7.85;4.85;;;;;;;15.42;38.14;97334.84;5052305;28;20045;-62
2022/12/30 07:08:21;;;;;;;6.65;5.15;;;;;;;15.15;38.63;97340.41;5052296;28;20053;-65
2022/12/30 07:10:54;;;;;;;8.48;5.47;;;;;;;15.54;39.11;97342.16;5052344;28;20078;-64
2022/12/30 07:13:22;;;;;;;9.10;5.72;;;;;;;16.15;37.36;97335.91;5052370;28;20052;-65
2022/12/30 07:15:51;;;;;;;6.22;5.10;;;;;;;16.51;37.20;97336.84;5052211;28;20096;-62
2022/12/30 07:18:20;;;;;;;6.13;5.25;;;;;;;16.57;36.06;97338.31;5052202;28;20081;-63
2022/12/30 07:20:48;;;;;;;7.07;5.30;;;;;;;16.82;36.26;97327.38;5052030;28;20476;-64
2022/12/30 07:23:18;;;;;;;5.97;4.70;;;;;;;17.21;35.63;97337.75;5052114;28;20045;-65
2022/12/30 07:25:47;;;;;;;6.00;4.97;;;;;;;16.62;35.73;97337.16;5052131;28;20049;-66
2022/12/30 07:28:19;;;;;;;6.28;5.00;;;;;;;17.07;35.68;97331.44;5052030;28;20045;-65
2022/12/30 07:30:47;;;;;;;6.32;5.40;;;;;;;17.87;34.62;97338.66;5051914;28;20056;-66
2022/12/30 07:33:17;;;;;;;6.38;5.00;;;;;;;18.56;33.43;97338.41;5051794;28;20053;-65
2022/12/30 07:35:46;;;;;;;5.57;5.00;;;;;;;19.38;32.13;97337.16;5051974;28;20543;-65
2022/12/30 07:38:17;;;;;;;5.40;4.88;;;;;;;20.10;31.54;97335.41;5051997;28;20049;-64
2022/12/30 07:41:02;;;;;;;5.28;4.72;;;;;;;20.64;30.18;97340.81;5051727;28;20048;-63
2022/12/30 07:43:32;;;;;;;6.45;5.32;;;;;;;21.30;29.64;97342.63;5051802;28;20494;-63
2022/12/30 07:46:06;;;;;;;6.65;5.38;;;;;;;21.64;29.02;97342.09;5051818;28;20053;-64
2022/12/30 07:48:39;;;;;;;6.22;5.60;;;;;;;21.81;28.94;97343.56;5051733;28;20093;-63
2022/12/30 07:51:12;;;;;;;8.73;6.78;;;;;;;22.18;28.80;97345.38;5051725;28;20061;-63
2022/12/30 07:53:46;;;;;;;9.68;6.72;;;;;;;22.34;28.44;97340.63;5051606;28;20049;-63
2022/12/30 07:56:17;;;;;;;10.98;7.22;;;;;;;22.62;28.56;97347.56;5051769;28;20109;-61
2022/12/30 07:58:58;;;;;;;9.20;7.50;;;;;;;23.13;28.49;97345.56;5051564;28;20057;-65
2022/12/30 08:01:26;;;;;;;12.65;8.80;;;;;;;23.53;27.65;97347.81;5051474;28;20049;-63
2022/12/30 08:03:57;;;;;;;10.95;7.78;;;;;;;23.47;27.49;97348.28;5051323;28;20094;-63
2022/12/30 08:06:31;;;;;;;8.70;6.78;;;;;;;23.54;27.64;97341.50;5051411;28;20049;-65
2022/12/30 08:09:03;;;;;;;8.98;6.90;;;;;;;23.54;27.96;97346.00;5051412;28;20053;-64
2022/12/30 08:11:42;;;;;;;7.03;6.22;;;;;;;23.92;27.45;97351.94;5051924;27;20051;-63
2022/12/30 08:14:13;;;;;;;7.40;6.13;;;;;;;24.14;27.49;97352.91;5051289;28;20045;-64
2022/12/30 08:16:46;;;;;;;9.02;7.05;;;;;;;24.22;26.90;97355.81;5051290;28;20045;-65
2022/12/30 08:19:28;;;;;;;7.70;6.43;;;;;;;23.79;28.07;97352.94;5051219;28;20056;-64
2022/12/30 08:21:58;;;;;;;7.05;6.28;;;;;;;23.90;27.89;97348.56;5051207;28;20507;-62
2022/12/30 08:24:33;;;;;;;9.63;6.20;;;;;;;23.73;28.44;97350.75;5051232;28;20045;-65
2022/12/30 08:27:02;;;;;;;7.50;6.72;;;;;;;23.93;27.83;97349.13;5051104;28;20446;-62
2022/12/30 08:29:30;;;;;;;7.38;6.68;;;;;;;23.97;27.71;97347.94;5051076;28;20414;-65
2022/12/30 08:32:05;;;;;;;7.82;7.00;;;;;;;23.76;27.64;97349.63;5051146;27;20128;-63
2022/12/30 08:34:41;;;;;;;7.53;6.47;;;;;;;22.78;28.77;97347.28;5050954;28;20056;-61
2022/12/30 08:37:14;;;;;;;8.60;6.70;;;;;;;22.58;29.33;97346.97;5050947;28;20045;-65
2022/12/30 08:39:48;;;;;;;9.07;7.38;;;;;;;22.03;30.18;97348.19;5050916;28;20136;-66
2022/12/30 08:42:17;;;;;;;10.13;7.05;;;;;;;21.53;31.02;97349.03;5051061;27;20125;-62
2022/12/30 08:44:47;;;;;;;9.07;7.93;;;;;;;20.96;31.70;97345.81;5050740;28;20052;-63
2022/12/30 08:47:18;;;;;;;8.80;6.93;;;;;;;20.28;33.01;97351.94;5050076;28;20401;-65
2022/12/30 08:49:52;;;;;;;9.02;7.82;;;;;;;19.86;33.88;97349.25;5050854;28;20052;-66
2022/12/30 08:52:22;;;;;;;11.07;8.27;;;;;;;19.36;34.96;97346.16;5050848;28;20048;-63
2022/12/30 08:54:56;;;;;;;10.07;7.47;;;;;;;19.09;35.34;97342.44;5050643;28;20041;-64
2022/12/30 08:57:26;;;;;;;11.55;8.30;;;;;;;18.34;36.75;97341.44;5050752;28;20467;-63
2022/12/30 08:59:54;;;;;;;9.60;8.25;;;;;;;17.61;38.42;97338.28;5050699;28;20045;-65
2022/12/30 09:02:24;;;;;;;8.98;8.05;;;;;;;17.13;39.27;97336.38;5050915;28;20457;-63
2022/12/30 09:04:52;;;;;;;11.68;8.23;;;;;;;16.85;39.50;97329.00;5050555;28;20077;-62
2022/12/30 09:07:23;;;;;;;13.15;8.88;;;;;;;16.36;41.76;97336.66;5050521;28;20053;-65
2022/12/30 09:09:51;;;;;;;11.32;8.93;;;;;;;15.69;42.69;97331.88;5050540;28;20124;-64
2022/12/30 09:12:19;;;;;;;14.18;9.52;;;;;;;14.98;44.26;97336.72;5050483;28;20056;-63
2022/12/30 09:14:47;;;;;;;11.20;9.27;;;;;;;14.41;45.32;97332.03;5050363;28;20051;-66
2022/12/30 09:17:15;;;;;;;14.93;9.30;;;;;;;14.22;45.83;97324.91;5050407;28;20573;-63
2022/12/30 09:19:43;;;;;;;11.23;9.32;;;;;;;13.98;46.64;97326.72;5050345;28;20057;-65
2022/12/30 09:22:15;;;;;;;11.13;9.27;;;;;;;13.69;47.53;97316.41;5050480;28;20482;-62
2022/12/30 09:24:43;;;;;;;11.63;8.93;;;;;;;13.45;48.14;97313.78;5050219;28;20041;-64
2022/12/30 09:27:14;;;;;;;12.60;8.80;;;;;;;13.33;48.79;97309.81;5050069;28;20077;-62
2022/12/30 09:29:42;;;;;;;11.85;9.95;;;;;;;13.13;49.02;97303.53;5050281;28;20049;-63
2022/12/30 09:32:09;;;;;;;13.27;10.13;;;;;;;13.02;50.13;97310.94;5050293;28;20097;-65
2022/12/30 09:34:37;;;;;;;12.55;10.23;;;;;;;12.74;51.41;97307.50;5050111;28;20052;-63
2022/12/30 09:37:06;;;;;;;12.82;8.90;;;;;;;12.68;52.69;97307.75;5050142;28;20072;-61
2022/12/30 09:39:40;;;;;;;16.30;9.98;;;;;;;12.45;52.90;97295.38;5049991;28;20490;-64
2022/12/30 09:45:20;;;;;;;12.93;10.30;;;;;;;12.47;52.04;97289.19;5050149;28;20048;-61
2022/12/30 09:47:52;;;;;;;15.20;10.45;;;;;;;12.28;53.37;97290.72;5049856;28;20131;-61
2022/12/30 09:50:27;;;;;;;14.48;10.68;;;;;;;12.11;52.41;97289.50;5049938;28;20131;-64
2022/12/30 09:53:04;;;;;;;19.00;11.32;;;;;;;12.00;53.25;97285.41;5049946;28;20136;-61
2022/12/30 09:55:35;;;;;;;14.75;10.65;;;;;;;11.96;53.75;97282.94;5049842;28;20053;-61
2022/12/30 09:58:09;;;;;;;15.35;10.60;;;;;;;11.87;54.11;97274.44;5052334;28;20056;-61
2022/12/30 10:00:42;;;;;;;15.70;10.38;;;;;;;12.03;54.03;97273.09;5053424;28;20102;-63
2022/12/30 10:03:17;;;;;;;15.75;10.55;;;;;;;12.06;53.95;97273.00;5053446;28;20082;-60
2022/12/30 10:06:02;;;;;;;12.80;10.35;;;;;;;11.97;53.85;97272.41;5053290;28;20049;-63
2022/12/30 10:08:41;;;;;;;15.00;9.95;;;;;;;11.98;53.46;97265.41;5053366;28;20048;-61
2022/12/30 10:11:26;;;;;;;14.40;10.30;;;;;;;12.11;53.77;97266.75;5053240;28;20066;-60
2022/12/30 10:14:01;;;;;;;13.23;10.27;;;;;;;12.04;53.74;97259.09;5053090;28;20053;-61
2022/12/30 10:16:43;;;;;;;15.65;10.98;;;;;;;11.97;54.53;97255.81;5053242;28;20127;-61
2022/12/30 10:19:20;;;;;;;14.50;10.77;;;;;;;11.94;52.96;97253.28;5053170;28;20041;-63
2022/12/30 10:21:57;;;;;;;12.50;9.63;;;;;;;12.09;54.16;97249.34;5053076;28;20497;-63
2022/12/30 10:24:45;;;;;;;14.43;9.80;;;;;;;12.25;53.22;97260.16;5053123;28;20478;-64
2022/12/30 10:27:22;;;;;;;14.98;9.63;;;;;;;12.21;52.44;97248.94;5052930;28;20573;-62
2022/12/30 10:29:49;;;;;;;12.77;10.18;;;;;;;12.29;52.57;97248.69;5052949;28;20075;-63
2022/12/30 10:32:20;;;;;;;15.05;10.45;;;;;;;12.41;51.99;97241.31;5052938;28;20045;-62
2022/12/30 10:34:50;;;;;;;16.58;10.02;;;;;;;12.43;52.21;97242.13;5052868;28;20041;-62
2022/12/30 10:37:30;;;;;;;13.93;9.73;;;;;;;12.44;51.62;97239.44;5052861;28;20098;-65
2022/12/30 10:39:58;;;;;;;12.88;9.77;;;;;;;12.50;51.38;97241.84;5053038;28;20053;-63
2022/12/30 10:42:49;;;;;;;13.63;10.25;;;;;;;12.56;51.22;97235.53;5052694;28;20053;-62
2022/12/30 10:45:45;;;;;;;14.05;10.20;;;;;;;12.66;51.15;97230.81;5052831;28;20098;-63
2022/12/30 10:48:33;;;;;;;13.13;9.80;;;;;;;12.75;51.40;97229.63;5052778;28;20084;-61
2022/12/30 10:51:00;;;;;;;14.60;9.27;;;;;;;12.69;51.32;97228.06;5052689;28;20076;-63
2022/12/30 10:53:31;;;;;;;11.90;8.90;;;;;;;12.78;50.75;97226.88;5052675;28;20097;-64
2022/12/30 10:56:01;;;;;;;11.45;8.43;;;;;;;12.77;50.29;97225.19;5052522;28;20045;-65
2022/12/30 10:58:39;;;;;;;11.73;8.10;;;;;;;12.66;50.89;97217.69;5052597;28;20048;-63
2022/12/30 11:01:11;;;;;;;12.88;8.88;;;;;;;12.69;51.33;97222.81;5052549;28;20490;-64
2022/12/30 11:03:44;;;;;;;14.60;8.90;;;;;;;12.73;50.96;97210.44;5052424;28;20102;-61
2022/12/30 11:06:21;;;;;;;10.98;8.65;;;;;;;12.76;51.21;97213.81;5052441;28;20056;-64
2022/12/30 11:08:49;;;;;;;10.82;8.70;;;;;;;12.82;50.35;97210.09;5051650;28;20084;-61
2022/12/30 11:11:17;;;;;;;15.07;8.05;;;;;;;12.79;50.52;97210.22;5052302;28;20121;-61
2022/12/30 11:16:43;;;;;;;12.02;7.20;;;;;;;12.80;49.22;97206.69;5052473;28;20052;-61
2022/12/30 11:19:23;;;;;;;12.27;7.63;;;;;;;12.79;49.85;97206.75;5052267;28;20057;-63
2022/12/30 11:21:54;;;;;;;10.93;8.30;;;;;;;12.82;50.13;97204.03;5052219;28;20094;-62
2022/12/30 11:24:22;;;;;;;10.48;8.13;;;;;;;12.73;49.80;97195.56;5052102;28;20093;-63
2022/12/30 11:26:52;;;;;;;11.20;8.50;;;;;;;12.77;50.00;97196.31;5051877;28;20045;-62
2022/12/30 11:29:23;;;;;;;11.77;9.07;;;;;;;12.67;49.89;97192.31;5052006;28;20044;-64
2022/12/30 11:31:55;;;;;;;12.18;9.07;;;;;;;12.63;50.36;97195.03;5052019;28;20063;-64
2022/12/30 11:34:29;;;;;;;14.18;9.45;;;;;;;12.58;50.70;97196.13;5052014;28;20094;-65
2022/12/30 11:37:02;;;;;;;14.13;10.35;;;;;;;12.62;51.20;97197.72;5051894;28;20049;-61
2022/12/30 11:39:35;;;;;;;21.05;10.30;;;;;;;12.60;51.31;97191.66;5052012;28;20048;-61
2022/12/30 11:42:25;;;;;;;16.15;10.52;;;;;;;12.43;51.50;97197.50;5051917;28;20460;-62
2022/12/30 11:45:14;;;;;;;18.08;11.57;;;;;;;12.42;51.79;97196.66;5051694;28;20097;-64
2022/12/30 11:47:46;;;;;;;14.82;11.70;;;;;;;12.42;52.04;97193.16;5051683;28;20406;-62
2022/12/30 11:50:19;;;;;;;16.20;11.73;;;;;;;12.32;51.65;97190.00;5051745;28;20053;-63
2022/12/30 11:52:54;;;;;;;20.95;14.77;;;;;;;12.31;53.01;97193.56;5051780;28;20056;-64
2022/12/30 11:55:25;;;;;;;24.38;16.70;;;;;;;12.33;53.11;97203.06;5051671;28;20098;-61
2022/12/30 11:57:55;;;;;;;27.63;18.33;;;;;;;12.33;53.35;97197.81;5051588;28;20060;-63
2022/12/30 12:00:36;;;;;;;20.25;14.98;;;;;;;12.21;53.20;97193.00;5051568;28;20057;-63
2022/12/30 12:03:08;;;;;;;19.63;13.98;;;;;;;12.13;53.52;97190.63;5051654;28;20041;-64
2022/12/30 12:05:42;;;;;;;21.60;14.50;;;;;;;12.14;53.58;97187.13;5051562;28;20045;-60
2022/12/30 12:08:16;;;;;;;18.58;14.02;;;;;;;12.09;53.74;97187.28;5051383;28;20063;-65
2022/12/30 12:10:55;;;;;;;18.92;13.55;;;;;;;12.11;53.84;97185.47;5051425;28;20410;-62
2022/12/30 12:13:32;;;;;;;22.42;15.20;;;;;;;12.15;53.75;97180.09;5051417;28;20045;-62
2022/12/30 12:16:02;;;;;;;20.00;14.82;;;;;;;12.16;53.99;97172.16;5051325;28;20045;-62
2022/12/30 12:18:36;;;;;;;22.98;14.63;;;;;;;12.25;53.82;97176.22;5051257;28;20436;-60
2022/12/30 12:21:10;;;;;;;20.58;14.65;;;;;;;12.25;53.79;97173.59;5050127;28;20049;-60
2022/12/30 12:23:48;;;;;;;26.85;16.75;;;;;;;12.28;53.85;97186.63;5051359;28;20049;-62
2022/12/30 12:26:21;;;;;;;25.27;15.98;;;;;;;12.18;54.20;97180.84;5051105;28;20041;-64
2022/12/30 12:28:51;;;;;;;21.40;14.70;;;;;;;12.16;54.53;97180.03;5051205;28;20045;-64
2022/12/30 12:31:56;;;;;;;28.77;17.67;;;;;;;12.16;54.65;97179.19;5051120;28;20049;-64
2022/12/30 12:34:37;;;;;;;23.13;15.88;;;;;;;12.22;54.30;97179.81;5048593;28;20101;-64
2022/12/30 12:37:17;;;;;;;22.50;15.45;;;;;;;12.05;54.35;97184.75;5051070;28;20482;-63
2022/12/30 12:39:58;;;;;;;26.80;18.00;;;;;;;12.00;54.85;97180.53;5050879;28;20049;-62